sensor_id;sensor_type;location;lat;lon;timestamp;P1;durP1;ratioP1;P2;durP2;ratioP2
72864;SDS011;61000;48.120;11.548;2022-12-10T00:02:03;48.08;;;22.70;;
72864;SDS011;61000;48.120;11.548;2022-12-10T00:04:29;46.92;;;22.95;;
72864;SDS011;61000;48.120;11.548;2022-12-10T00:06:56;43.08;;;21.88;;
72864;SDS011;61000;48.120;11.548;2022-12-10T00:09:24;48.40;;;23.92;;
72864;SDS011;61000;48.120;11.548;2022-12-10T00:11:51;44.50;;;22.17;;
72864;SDS011;61000;48.120;11.548;2022-12-10T00:14:18;46.75;;;23.05;;
72864;SDS011;61000;48.120;11.548;2022-12-10T00:16:45;58.38;;;25.27;;
72864;SDS011;61000;48.120;11.548;2022-12-10T00:19:12;63.05;;;26.90;;
72864;SDS011;61000;48.120;11.548;2022-12-10T00:21:39;66.78;;;26.90;;
72864;SDS011;61000;48.120;11.548;2022-12-10T00:24:06;65.78;;;27.70;;
72864;SDS011;61000;48.120;11.548;2022-12-10T00:26:35;72.30;;;28.08;;
72864;SDS011;61000;48.120;11.548;2022-12-10T00:29:04;60.22;;;28.63;;
72864;SDS011;61000;48.120;11.548;2022-12-10T00:31:33;64.32;;;27.17;;
72864;SDS011;61000;48.120;11.548;2022-12-10T00:34:04;61.40;;;27.48;;
72864;SDS011;61000;48.120;11.548;2022-12-10T00:36:33;64.82;;;28.83;;
72864;SDS011;61000;48.120;11.548;2022-12-10T00:39:02;63.42;;;29.05;;
72864;SDS011;61000;48.120;11.548;2022-12-10T00:41:30;62.60;;;27.23;;
72864;SDS011;61000;48.120;11.548;2022-12-10T00:43:58;66.07;;;29.25;;
72864;SDS011;61000;48.120;11.548;2022-12-10T00:46:26;63.00;;;27.98;;
72864;SDS011;61000;48.120;11.548;2022-12-10T00:48:53;62.20;;;28.58;;
72864;SDS011;61000;48.120;11.548;2022-12-10T00:51:20;62.03;;;27.38;;
72864;SDS011;61000;48.120;11.548;2022-12-10T00:53:48;57.22;;;25.45;;
72864;SDS011;61000;48.120;11.548;2022-12-10T00:56:17;63.45;;;27.00;;
72864;SDS011;61000;48.120;11.548;2022-12-10T00:58:45;55.53;;;25.95;;
72864;SDS011;61000;48.120;11.548;2022-12-10T01:01:16;66.28;;;26.00;;
72864;SDS011;61000;48.120;11.548;2022-12-10T01:03:45;61.35;;;25.35;;
72864;SDS011;61000;48.120;11.548;2022-12-10T01:06:13;61.33;;;26.88;;
72864;SDS011;61000;48.120;11.548;2022-12-10T01:08:44;58.58;;;26.35;;
72864;SDS011;61000;48.120;11.548;2022-12-10T01:11:11;54.45;;;25.95;;
72864;SDS011;61000;48.120;11.548;2022-12-10T01:13:40;61.20;;;26.50;;
72864;SDS011;61000;48.120;11.548;2022-12-10T01:16:09;62.85;;;28.48;;
72864;SDS011;61000;48.120;11.548;2022-12-10T01:18:38;58.33;;;25.70;;
72864;SDS011;61000;48.120;11.548;2022-12-10T01:21:06;54.63;;;25.75;;
72864;SDS011;61000;48.120;11.548;2022-12-10T01:23:35;60.42;;;26.77;;
72864;SDS011;61000;48.120;11.548;2022-12-10T01:26:04;60.80;;;27.13;;
72864;SDS011;61000;48.120;11.548;2022-12-10T01:28:33;61.92;;;26.05;;
72864;SDS011;61000;48.120;11.548;2022-12-10T01:31:02;58.13;;;25.13;;
72864;SDS011;61000;48.120;11.548;2022-12-10T01:33:30;57.03;;;24.13;;
72864;SDS011;61000;48.120;11.548;2022-12-10T01:36:02;59.90;;;26.92;;
72864;SDS011;61000;48.120;11.548;2022-12-10T01:38:30;62.53;;;24.90;;
72864;SDS011;61000;48.120;11.548;2022-12-10T01:40:56;65.35;;;27.42;;
72864;SDS011;61000;48.120;11.548;2022-12-10T01:43:23;56.03;;;24.52;;
72864;SDS011;61000;48.120;11.548;2022-12-10T01:45:50;61.65;;;25.02;;
72864;SDS011;61000;48.120;11.548;2022-12-10T01:48:18;62.92;;;25.42;;
72864;SDS011;61000;48.120;11.548;2022-12-10T01:50:45;69.18;;;27.20;;
72864;SDS011;61000;48.120;11.548;2022-12-10T01:53:13;62.42;;;26.02;;
72864;SDS011;61000;48.120;11.548;2022-12-10T01:55:42;48.97;;;23.58;;
72864;SDS011;61000;48.120;11.548;2022-12-10T01:58:13;57.65;;;24.08;;
72864;SDS011;61000;48.120;11.548;2022-12-10T02:00:46;54.92;;;24.75;;
72864;SDS011;61000;48.120;11.548;2022-12-10T02:03:33;63.75;;;26.17;;
72864;SDS011;61000;48.120;11.548;2022-12-10T02:06:10;56.40;;;26.00;;
72864;SDS011;61000;48.120;11.548;2022-12-10T02:08:46;56.20;;;25.33;;
72864;SDS011;61000;48.120;11.548;2022-12-10T02:11:22;60.22;;;25.80;;
72864;SDS011;61000;48.120;11.548;2022-12-10T02:13:56;54.58;;;23.70;;
72864;SDS011;61000;48.120;11.548;2022-12-10T02:16:30;58.85;;;25.98;;
72864;SDS011;61000;48.120;11.548;2022-12-10T02:19:02;63.63;;;25.38;;
72864;SDS011;61000;48.120;11.548;2022-12-10T02:21:36;60.95;;;26.15;;
72864;SDS011;61000;48.120;11.548;2022-12-10T02:24:11;65.15;;;27.10;;
72864;SDS011;61000;48.120;11.548;2022-12-10T02:26:43;60.47;;;25.23;;
72864;SDS011;61000;48.120;11.548;2022-12-10T02:29:17;75.25;;;26.30;;
72864;SDS011;61000;48.120;11.548;2022-12-10T02:31:46;65.88;;;25.48;;
72864;SDS011;61000;48.120;11.548;2022-12-10T02:34:32;63.72;;;25.70;;
72864;SDS011;61000;48.120;11.548;2022-12-10T02:37:04;62.22;;;26.80;;
72864;SDS011;61000;48.120;11.548;2022-12-10T02:39:35;67.38;;;26.83;;
72864;SDS011;61000;48.120;11.548;2022-12-10T02:42:08;78.05;;;26.80;;
72864;SDS011;61000;48.120;11.548;2022-12-10T02:44:37;61.13;;;26.10;;
72864;SDS011;61000;48.120;11.548;2022-12-10T02:47:08;60.80;;;25.05;;
72864;SDS011;61000;48.120;11.548;2022-12-10T02:49:40;66.47;;;27.20;;
72864;SDS011;61000;48.120;11.548;2022-12-10T02:52:11;66.53;;;26.38;;
72864;SDS011;61000;48.120;11.548;2022-12-10T02:54:43;68.63;;;26.60;;
72864;SDS011;61000;48.120;11.548;2022-12-10T02:57:18;63.03;;;24.60;;
72864;SDS011;61000;48.120;11.548;2022-12-10T03:00:10;72.78;;;29.40;;
72864;SDS011;61000;48.120;11.548;2022-12-10T03:02:52;72.53;;;27.85;;
72864;SDS011;61000;48.120;11.548;2022-12-10T03:05:33;60.50;;;27.45;;
72864;SDS011;61000;48.120;11.548;2022-12-10T03:08:03;62.13;;;26.75;;
72864;SDS011;61000;48.120;11.548;2022-12-10T03:10:40;63.75;;;26.80;;
72864;SDS011;61000;48.120;11.548;2022-12-10T03:13:12;54.33;;;27.48;;
72864;SDS011;61000;48.120;11.548;2022-12-10T03:15:43;61.25;;;27.58;;
72864;SDS011;61000;48.120;11.548;2022-12-10T03:18:11;66.70;;;28.63;;
72864;SDS011;61000;48.120;11.548;2022-12-10T03:20:42;62.00;;;28.08;;
72864;SDS011;61000;48.120;11.548;2022-12-10T03:23:13;52.92;;;24.13;;
72864;SDS011;61000;48.120;11.548;2022-12-10T03:25:43;53.28;;;23.15;;
72864;SDS011;61000;48.120;11.548;2022-12-10T03:28:10;48.28;;;22.63;;
72864;SDS011;61000;48.120;11.548;2022-12-10T03:30:38;54.05;;;23.95;;
72864;SDS011;61000;48.120;11.548;2022-12-10T03:33:08;44.03;;;20.55;;
72864;SDS011;61000;48.120;11.548;2022-12-10T03:35:35;45.40;;;21.60;;
72864;SDS011;61000;48.120;11.548;2022-12-10T03:38:02;43.85;;;21.83;;
72864;SDS011;61000;48.120;11.548;2022-12-10T03:40:30;49.72;;;21.95;;
72864;SDS011;61000;48.120;11.548;2022-12-10T03:42:57;48.08;;;23.23;;
72864;SDS011;61000;48.120;11.548;2022-12-10T03:45:24;47.83;;;21.50;;
72864;SDS011;61000;48.120;11.548;2022-12-10T03:47:51;48.70;;;22.08;;
72864;SDS011;61000;48.120;11.548;2022-12-10T03:50:19;50.80;;;24.70;;
72864;SDS011;61000;48.120;11.548;2022-12-10T03:52:46;55.13;;;24.95;;
72864;SDS011;61000;48.120;11.548;2022-12-10T03:55:13;53.08;;;23.88;;
72864;SDS011;61000;48.120;11.548;2022-12-10T03:57:40;52.28;;;24.27;;
72864;SDS011;61000;48.120;11.548;2022-12-10T04:00:07;39.58;;;20.55;;
72864;SDS011;61000;48.120;11.548;2022-12-10T04:02:38;50.13;;;22.13;;
72864;SDS011;61000;48.120;11.548;2022-12-10T04:05:05;48.65;;;22.20;;
72864;SDS011;61000;48.120;11.548;2022-12-10T04:07:34;48.85;;;22.55;;
72864;SDS011;61000;48.120;11.548;2022-12-10T04:10:01;46.15;;;21.77;;
72864;SDS011;61000;48.120;11.548;2022-12-10T04:12:28;46.05;;;22.38;;
72864;SDS011;61000;48.120;11.548;2022-12-10T04:14:55;54.80;;;22.50;;
72864;SDS011;61000;48.120;11.548;2022-12-10T04:17:40;50.83;;;22.40;;
72864;SDS011;61000;48.120;11.548;2022-12-10T04:20:06;48.65;;;21.55;;
72864;SDS011;61000;48.120;11.548;2022-12-10T04:22:56;45.78;;;22.75;;
72864;SDS011;61000;48.120;11.548;2022-12-10T04:25:40;47.17;;;21.95;;
72864;SDS011;61000;48.120;11.548;2022-12-10T04:28:25;46.45;;;22.20;;
72864;SDS011;61000;48.120;11.548;2022-12-10T04:30:52;50.05;;;23.65;;
72864;SDS011;61000;48.120;11.548;2022-12-10T04:33:19;47.63;;;22.67;;
72864;SDS011;61000;48.120;11.548;2022-12-10T04:35:45;50.30;;;22.15;;
72864;SDS011;61000;48.120;11.548;2022-12-10T04:38:14;51.50;;;22.75;;
72864;SDS011;61000;48.120;11.548;2022-12-10T04:40:40;47.47;;;21.42;;
72864;SDS011;61000;48.120;11.548;2022-12-10T04:43:07;54.20;;;23.25;;
72864;SDS011;61000;48.120;11.548;2022-12-10T04:45:34;49.83;;;21.70;;
72864;SDS011;61000;48.120;11.548;2022-12-10T04:48:01;47.70;;;21.15;;
72864;SDS011;61000;48.120;11.548;2022-12-10T04:50:28;46.65;;;21.15;;
72864;SDS011;61000;48.120;11.548;2022-12-10T04:52:55;43.78;;;20.33;;
72864;SDS011;61000;48.120;11.548;2022-12-10T04:55:23;43.53;;;20.02;;
72864;SDS011;61000;48.120;11.548;2022-12-10T04:57:50;43.17;;;20.48;;
72864;SDS011;61000;48.120;11.548;2022-12-10T05:00:18;47.63;;;21.23;;
72864;SDS011;61000;48.120;11.548;2022-12-10T05:02:47;47.17;;;22.27;;
72864;SDS011;61000;48.120;11.548;2022-12-10T05:05:15;48.92;;;20.65;;
72864;SDS011;61000;48.120;11.548;2022-12-10T05:07:42;47.75;;;21.08;;
72864;SDS011;61000;48.120;11.548;2022-12-10T05:10:09;47.50;;;20.40;;
72864;SDS011;61000;48.120;11.548;2022-12-10T05:12:37;48.72;;;22.65;;
72864;SDS011;61000;48.120;11.548;2022-12-10T05:15:04;48.45;;;21.70;;
72864;SDS011;61000;48.120;11.548;2022-12-10T05:17:32;48.85;;;22.80;;
72864;SDS011;61000;48.120;11.548;2022-12-10T05:20:00;51.42;;;22.85;;
72864;SDS011;61000;48.120;11.548;2022-12-10T05:22:27;49.85;;;23.08;;
72864;SDS011;61000;48.120;11.548;2022-12-10T05:25:11;45.83;;;22.58;;
72864;SDS011;61000;48.120;11.548;2022-12-10T05:27:40;49.58;;;23.23;;
72864;SDS011;61000;48.120;11.548;2022-12-10T05:30:07;46.83;;;21.42;;
72864;SDS011;61000;48.120;11.548;2022-12-10T05:32:35;51.08;;;23.40;;
72864;SDS011;61000;48.120;11.548;2022-12-10T05:35:02;51.42;;;22.30;;
72864;SDS011;61000;48.120;11.548;2022-12-10T05:37:30;48.20;;;23.00;;
72864;SDS011;61000;48.120;11.548;2022-12-10T05:39:57;47.45;;;22.17;;
72864;SDS011;61000;48.120;11.548;2022-12-10T05:42:24;46.25;;;22.55;;
72864;SDS011;61000;48.120;11.548;2022-12-10T05:44:52;50.65;;;22.05;;
72864;SDS011;61000;48.120;11.548;2022-12-10T05:47:18;44.58;;;21.27;;
72864;SDS011;61000;48.120;11.548;2022-12-10T05:49:45;47.88;;;23.70;;
72864;SDS011;61000;48.120;11.548;2022-12-10T05:52:13;50.78;;;23.58;;
72864;SDS011;61000;48.120;11.548;2022-12-10T05:54:39;49.83;;;21.70;;
72864;SDS011;61000;48.120;11.548;2022-12-10T05:57:06;41.38;;;21.83;;
72864;SDS011;61000;48.120;11.548;2022-12-10T05:59:33;43.10;;;21.25;;
72864;SDS011;61000;48.120;11.548;2022-12-10T06:02:01;40.35;;;21.45;;
72864;SDS011;61000;48.120;11.548;2022-12-10T06:04:28;42.70;;;21.65;;
72864;SDS011;61000;48.120;11.548;2022-12-10T06:06:55;48.22;;;22.02;;
72864;SDS011;61000;48.120;11.548;2022-12-10T06:09:22;44.78;;;22.13;;
72864;SDS011;61000;48.120;11.548;2022-12-10T06:11:48;42.03;;;21.33;;
72864;SDS011;61000;48.120;11.548;2022-12-10T06:14:15;44.65;;;22.13;;
72864;SDS011;61000;48.120;11.548;2022-12-10T06:16:42;42.67;;;21.67;;
72864;SDS011;61000;48.120;11.548;2022-12-10T06:19:10;49.58;;;23.45;;
72864;SDS011;61000;48.120;11.548;2022-12-10T06:21:38;46.92;;;23.33;;
72864;SDS011;61000;48.120;11.548;2022-12-10T06:24:06;42.92;;;21.33;;
72864;SDS011;61000;48.120;11.548;2022-12-10T06:26:33;42.00;;;21.67;;
72864;SDS011;61000;48.120;11.548;2022-12-10T06:28:59;47.28;;;22.60;;
72864;SDS011;61000;48.120;11.548;2022-12-10T06:31:26;42.72;;;22.85;;
72864;SDS011;61000;48.120;11.548;2022-12-10T06:33:53;47.55;;;22.77;;
72864;SDS011;61000;48.120;11.548;2022-12-10T06:36:21;54.13;;;24.48;;
72864;SDS011;61000;48.120;11.548;2022-12-10T06:38:48;55.92;;;24.45;;
72864;SDS011;61000;48.120;11.548;2022-12-10T06:41:16;50.13;;;22.83;;
72864;SDS011;61000;48.120;11.548;2022-12-10T06:43:45;51.13;;;24.50;;
72864;SDS011;61000;48.120;11.548;2022-12-10T06:46:13;46.22;;;23.40;;
72864;SDS011;61000;48.120;11.548;2022-12-10T06:48:41;57.42;;;24.65;;
72864;SDS011;61000;48.120;11.548;2022-12-10T06:51:09;45.05;;;23.05;;
72864;SDS011;61000;48.120;11.548;2022-12-10T06:53:38;52.10;;;24.13;;
72864;SDS011;61000;48.120;11.548;2022-12-10T06:56:07;49.35;;;24.17;;
72864;SDS011;61000;48.120;11.548;2022-12-10T06:58:38;40.65;;;22.40;;
72864;SDS011;61000;48.120;11.548;2022-12-10T07:01:06;43.47;;;21.00;;
72864;SDS011;61000;48.120;11.548;2022-12-10T07:03:34;47.90;;;24.25;;
72864;SDS011;61000;48.120;11.548;2022-12-10T07:06:01;51.63;;;25.02;;
72864;SDS011;61000;48.120;11.548;2022-12-10T07:08:29;53.17;;;24.17;;
72864;SDS011;61000;48.120;11.548;2022-12-10T07:10:57;52.08;;;23.67;;
72864;SDS011;61000;48.120;11.548;2022-12-10T07:13:24;51.42;;;25.50;;
72864;SDS011;61000;48.120;11.548;2022-12-10T07:15:51;44.67;;;23.85;;
72864;SDS011;61000;48.120;11.548;2022-12-10T07:18:18;46.60;;;22.98;;
72864;SDS011;61000;48.120;11.548;2022-12-10T07:20:46;48.97;;;23.73;;
72864;SDS011;61000;48.120;11.548;2022-12-10T07:23:13;50.53;;;24.67;;
72864;SDS011;61000;48.120;11.548;2022-12-10T07:25:40;47.38;;;25.02;;
72864;SDS011;61000;48.120;11.548;2022-12-10T07:28:08;43.30;;;23.17;;
72864;SDS011;61000;48.120;11.548;2022-12-10T07:30:35;49.55;;;23.90;;
72864;SDS011;61000;48.120;11.548;2022-12-10T07:33:02;46.20;;;22.95;;
72864;SDS011;61000;48.120;11.548;2022-12-10T07:35:29;47.42;;;23.40;;
72864;SDS011;61000;48.120;11.548;2022-12-10T07:37:56;48.40;;;22.17;;
72864;SDS011;61000;48.120;11.548;2022-12-10T07:40:23;42.33;;;21.17;;
72864;SDS011;61000;48.120;11.548;2022-12-10T07:42:50;39.38;;;20.80;;
72864;SDS011;61000;48.120;11.548;2022-12-10T07:45:18;34.88;;;18.48;;
72864;SDS011;61000;48.120;11.548;2022-12-10T07:47:45;38.63;;;20.92;;
72864;SDS011;61000;48.120;11.548;2022-12-10T07:50:12;33.08;;;18.98;;
72864;SDS011;61000;48.120;11.548;2022-12-10T07:52:39;36.80;;;21.00;;
72864;SDS011;61000;48.120;11.548;2022-12-10T07:55:06;28.45;;;17.08;;
72864;SDS011;61000;48.120;11.548;2022-12-10T07:57:33;31.85;;;17.35;;
72864;SDS011;61000;48.120;11.548;2022-12-10T08:00:00;31.65;;;17.58;;
72864;SDS011;61000;48.120;11.548;2022-12-10T08:02:38;33.08;;;17.55;;
72864;SDS011;61000;48.120;11.548;2022-12-10T08:05:05;37.60;;;19.10;;
72864;SDS011;61000;48.120;11.548;2022-12-10T08:07:32;33.42;;;19.02;;
72864;SDS011;61000;48.120;11.548;2022-12-10T08:09:59;34.55;;;18.85;;
72864;SDS011;61000;48.120;11.548;2022-12-10T08:12:26;33.97;;;18.02;;
72864;SDS011;61000;48.120;11.548;2022-12-10T08:14:53;29.98;;;16.58;;
72864;SDS011;61000;48.120;11.548;2022-12-10T08:17:20;28.17;;;15.27;;
72864;SDS011;61000;48.120;11.548;2022-12-10T08:19:48;33.88;;;17.38;;
72864;SDS011;61000;48.120;11.548;2022-12-10T08:22:15;31.38;;;17.80;;
72864;SDS011;61000;48.120;11.548;2022-12-10T08:24:42;32.03;;;18.30;;
72864;SDS011;61000;48.120;11.548;2022-12-10T08:27:09;32.72;;;15.70;;
72864;SDS011;61000;48.120;11.548;2022-12-10T08:29:36;22.42;;;14.35;;
72864;SDS011;61000;48.120;11.548;2022-12-10T08:32:03;22.35;;;13.10;;
72864;SDS011;61000;48.120;11.548;2022-12-10T08:34:30;26.38;;;14.70;;
72864;SDS011;61000;48.120;11.548;2022-12-10T08:36:58;31.52;;;16.05;;
72864;SDS011;61000;48.120;11.548;2022-12-10T08:39:25;30.77;;;17.80;;
72864;SDS011;61000;48.120;11.548;2022-12-10T08:41:52;32.53;;;17.33;;
72864;SDS011;61000;48.120;11.548;2022-12-10T08:44:18;33.05;;;17.35;;
72864;SDS011;61000;48.120;11.548;2022-12-10T08:46:45;32.28;;;18.10;;
72864;SDS011;61000;48.120;11.548;2022-12-10T08:49:12;33.35;;;17.35;;
72864;SDS011;61000;48.120;11.548;2022-12-10T08:51:40;32.28;;;17.88;;
72864;SDS011;61000;48.120;11.548;2022-12-10T08:54:08;29.88;;;17.70;;
72864;SDS011;61000;48.120;11.548;2022-12-10T08:56:35;38.97;;;19.77;;
72864;SDS011;61000;48.120;11.548;2022-12-10T08:59:04;38.42;;;20.70;;
72864;SDS011;61000;48.120;11.548;2022-12-10T09:01:31;37.60;;;20.25;;
72864;SDS011;61000;48.120;11.548;2022-12-10T09:03:58;45.78;;;21.50;;
72864;SDS011;61000;48.120;11.548;2022-12-10T09:06:25;40.42;;;20.58;;
72864;SDS011;61000;48.120;11.548;2022-12-10T09:08:53;42.35;;;21.52;;
72864;SDS011;61000;48.120;11.548;2022-12-10T09:11:22;40.97;;;20.42;;
72864;SDS011;61000;48.120;11.548;2022-12-10T09:13:50;37.25;;;21.05;;
72864;SDS011;61000;48.120;11.548;2022-12-10T09:16:18;36.15;;;19.00;;
72864;SDS011;61000;48.120;11.548;2022-12-10T09:18:45;37.47;;;20.58;;
72864;SDS011;61000;48.120;11.548;2022-12-10T09:21:13;43.33;;;21.35;;
72864;SDS011;61000;48.120;11.548;2022-12-10T09:23:42;39.05;;;17.58;;
72864;SDS011;61000;48.120;11.548;2022-12-10T09:26:10;35.42;;;18.83;;
72864;SDS011;61000;48.120;11.548;2022-12-10T09:28:40;33.67;;;18.45;;
72864;SDS011;61000;48.120;11.548;2022-12-10T09:31:08;33.10;;;19.15;;
72864;SDS011;61000;48.120;11.548;2022-12-10T09:33:36;36.53;;;18.27;;
72864;SDS011;61000;48.120;11.548;2022-12-10T09:36:03;40.58;;;20.40;;
72864;SDS011;61000;48.120;11.548;2022-12-10T09:38:32;37.08;;;19.85;;
72864;SDS011;61000;48.120;11.548;2022-12-10T09:41:00;43.47;;;21.65;;
72864;SDS011;61000;48.120;11.548;2022-12-10T09:43:32;38.70;;;19.50;;
72864;SDS011;61000;48.120;11.548;2022-12-10T09:46:14;37.40;;;19.10;;
72864;SDS011;61000;48.120;11.548;2022-12-10T09:48:50;45.60;;;20.88;;
72864;SDS011;61000;48.120;11.548;2022-12-10T09:51:26;50.92;;;22.92;;
72864;SDS011;61000;48.120;11.548;2022-12-10T09:53:56;41.42;;;21.02;;
72864;SDS011;61000;48.120;11.548;2022-12-10T09:56:26;44.60;;;20.27;;
72864;SDS011;61000;48.120;11.548;2022-12-10T09:58:57;39.95;;;20.15;;
72864;SDS011;61000;48.120;11.548;2022-12-10T10:01:27;37.53;;;19.20;;
72864;SDS011;61000;48.120;11.548;2022-12-10T10:03:56;40.28;;;19.67;;
72864;SDS011;61000;48.120;11.548;2022-12-10T10:06:23;39.05;;;20.60;;
72864;SDS011;61000;48.120;11.548;2022-12-10T10:08:53;39.05;;;19.35;;
72864;SDS011;61000;48.120;11.548;2022-12-10T10:11:23;44.40;;;22.40;;
72864;SDS011;61000;48.120;11.548;2022-12-10T10:13:55;46.15;;;22.60;;
72864;SDS011;61000;48.120;11.548;2022-12-10T10:16:26;46.58;;;24.02;;
72864;SDS011;61000;48.120;11.548;2022-12-10T10:18:57;47.80;;;21.38;;
72864;SDS011;61000;48.120;11.548;2022-12-10T10:21:27;47.08;;;22.27;;
72864;SDS011;61000;48.120;11.548;2022-12-10T10:23:57;47.28;;;22.48;;
72864;SDS011;61000;48.120;11.548;2022-12-10T10:26:25;40.35;;;19.58;;
72864;SDS011;61000;48.120;11.548;2022-12-10T10:28:55;41.80;;;21.30;;
72864;SDS011;61000;48.120;11.548;2022-12-10T10:31:25;43.47;;;21.60;;
72864;SDS011;61000;48.120;11.548;2022-12-10T10:33:54;42.70;;;21.17;;
72864;SDS011;61000;48.120;11.548;2022-12-10T10:36:23;44.17;;;21.65;;
72864;SDS011;61000;48.120;11.548;2022-12-10T10:38:52;45.08;;;21.63;;
72864;SDS011;61000;48.120;11.548;2022-12-10T10:41:19;45.35;;;21.85;;
72864;SDS011;61000;48.120;11.548;2022-12-10T10:43:46;44.00;;;21.77;;
72864;SDS011;61000;48.120;11.548;2022-12-10T10:46:16;47.28;;;22.00;;
72864;SDS011;61000;48.120;11.548;2022-12-10T10:48:48;51.35;;;23.55;;
72864;SDS011;61000;48.120;11.548;2022-12-10T10:51:17;45.38;;;21.80;;
72864;SDS011;61000;48.120;11.548;2022-12-10T10:53:48;44.03;;;22.20;;
72864;SDS011;61000;48.120;11.548;2022-12-10T10:56:17;56.58;;;27.63;;
72864;SDS011;61000;48.120;11.548;2022-12-10T10:58:52;46.13;;;23.02;;
72864;SDS011;61000;48.120;11.548;2022-12-10T11:01:21;45.40;;;21.67;;
72864;SDS011;61000;48.120;11.548;2022-12-10T11:03:53;46.20;;;22.75;;
72864;SDS011;61000;48.120;11.548;2022-12-10T11:06:21;47.20;;;23.27;;
72864;SDS011;61000;48.120;11.548;2022-12-10T11:08:49;47.50;;;23.98;;
72864;SDS011;61000;48.120;11.548;2022-12-10T11:11:20;45.95;;;20.77;;
72864;SDS011;61000;48.120;11.548;2022-12-10T11:13:50;43.45;;;20.20;;
72864;SDS011;61000;48.120;11.548;2022-12-10T11:16:18;42.22;;;21.02;;
72864;SDS011;61000;48.120;11.548;2022-12-10T11:18:53;45.92;;;21.00;;
72864;SDS011;61000;48.120;11.548;2022-12-10T11:21:27;49.75;;;21.25;;
72864;SDS011;61000;48.120;11.548;2022-12-10T11:23:55;68.10;;;28.58;;
72864;SDS011;61000;48.120;11.548;2022-12-10T11:29:16;50.10;;;22.98;;
72864;SDS011;61000;48.120;11.548;2022-12-10T11:31:55;43.92;;;21.40;;
72864;SDS011;61000;48.120;11.548;2022-12-10T11:34:36;44.80;;;20.40;;
72864;SDS011;61000;48.120;11.548;2022-12-10T11:37:13;46.05;;;22.90;;
72864;SDS011;61000;48.120;11.548;2022-12-10T11:39:53;50.40;;;25.15;;
72864;SDS011;61000;48.120;11.548;2022-12-10T11:42:30;49.35;;;25.48;;
72864;SDS011;61000;48.120;11.548;2022-12-10T11:45:06;57.60;;;26.65;;
72864;SDS011;61000;48.120;11.548;2022-12-10T11:47:41;50.30;;;23.95;;
72864;SDS011;61000;48.120;11.548;2022-12-10T11:50:23;40.38;;;21.50;;
72864;SDS011;61000;48.120;11.548;2022-12-10T11:53:02;49.00;;;23.92;;
72864;SDS011;61000;48.120;11.548;2022-12-10T11:55:44;46.17;;;21.75;;
72864;SDS011;61000;48.120;11.548;2022-12-10T12:01:13;48.28;;;23.45;;
72864;SDS011;61000;48.120;11.548;2022-12-10T12:03:53;44.53;;;22.95;;
72864;SDS011;61000;48.120;11.548;2022-12-10T12:06:31;42.90;;;21.20;;
72864;SDS011;61000;48.120;11.548;2022-12-10T12:09:10;42.60;;;22.20;;
72864;SDS011;61000;48.120;11.548;2022-12-10T12:11:49;44.53;;;21.90;;
72864;SDS011;61000;48.120;11.548;2022-12-10T12:14:26;45.38;;;23.13;;
72864;SDS011;61000;48.120;11.548;2022-12-10T12:17:00;49.75;;;23.52;;
72864;SDS011;61000;48.120;11.548;2022-12-10T12:19:32;48.50;;;22.95;;
72864;SDS011;61000;48.120;11.548;2022-12-10T12:22:08;45.53;;;21.88;;
72864;SDS011;61000;48.120;11.548;2022-12-10T12:24:41;39.30;;;18.33;;
72864;SDS011;61000;48.120;11.548;2022-12-10T12:27:14;48.78;;;23.25;;
72864;SDS011;61000;48.120;11.548;2022-12-10T12:29:50;44.67;;;21.92;;
72864;SDS011;61000;48.120;11.548;2022-12-10T12:32:25;44.22;;;21.98;;
72864;SDS011;61000;48.120;11.548;2022-12-10T12:34:56;45.45;;;23.52;;
72864;SDS011;61000;48.120;11.548;2022-12-10T12:37:29;55.30;;;25.42;;
72864;SDS011;61000;48.120;11.548;2022-12-10T12:40:03;47.42;;;22.13;;
72864;SDS011;61000;48.120;11.548;2022-12-10T12:42:37;47.13;;;20.77;;
72864;SDS011;61000;48.120;11.548;2022-12-10T12:45:13;49.17;;;22.95;;
72864;SDS011;61000;48.120;11.548;2022-12-10T12:47:43;42.28;;;19.88;;
72864;SDS011;61000;48.120;11.548;2022-12-10T12:50:19;53.65;;;24.20;;
72864;SDS011;61000;48.120;11.548;2022-12-10T12:52:53;52.13;;;25.67;;
72864;SDS011;61000;48.120;11.548;2022-12-10T12:55:26;46.40;;;23.02;;
72864;SDS011;61000;48.120;11.548;2022-12-10T12:58:00;59.47;;;24.52;;
72864;SDS011;61000;48.120;11.548;2022-12-10T13:00:46;46.50;;;22.92;;
72864;SDS011;61000;48.120;11.548;2022-12-10T13:03:19;52.33;;;24.35;;
72864;SDS011;61000;48.120;11.548;2022-12-10T13:05:54;72.00;;;30.42;;
72864;SDS011;61000;48.120;11.548;2022-12-10T13:08:27;68.75;;;29.17;;
72864;SDS011;61000;48.120;11.548;2022-12-10T13:11:00;52.35;;;25.13;;
72864;SDS011;61000;48.120;11.548;2022-12-10T13:14:01;60.33;;;27.80;;
72864;SDS011;61000;48.120;11.548;2022-12-10T13:16:46;53.20;;;24.80;;
72864;SDS011;61000;48.120;11.548;2022-12-10T13:19:26;51.53;;;23.85;;
72864;SDS011;61000;48.120;11.548;2022-12-10T13:22:03;51.90;;;23.92;;
72864;SDS011;61000;48.120;11.548;2022-12-10T13:27:40;45.80;;;19.77;;
72864;SDS011;61000;48.120;11.548;2022-12-10T13:33:12;54.42;;;27.85;;
72864;SDS011;61000;48.120;11.548;2022-12-10T13:35:43;56.92;;;26.20;;
72864;SDS011;61000;48.120;11.548;2022-12-10T13:38:20;54.90;;;25.73;;
72864;SDS011;61000;48.120;11.548;2022-12-10T13:40:56;56.53;;;27.27;;
72864;SDS011;61000;48.120;11.548;2022-12-10T13:43:44;61.03;;;26.80;;
72864;SDS011;61000;48.120;11.548;2022-12-10T13:46:49;64.35;;;27.15;;
72864;SDS011;61000;48.120;11.548;2022-12-10T13:49:22;56.70;;;26.33;;
72864;SDS011;61000;48.120;11.548;2022-12-10T13:51:58;58.92;;;25.00;;
72864;SDS011;61000;48.120;11.548;2022-12-10T13:54:34;53.03;;;23.67;;
72864;SDS011;61000;48.120;11.548;2022-12-10T14:00:19;61.05;;;26.70;;
72864;SDS011;61000;48.120;11.548;2022-12-10T14:02:56;50.97;;;25.05;;
72864;SDS011;61000;48.120;11.548;2022-12-10T14:06:06;62.95;;;27.80;;
72864;SDS011;61000;48.120;11.548;2022-12-10T14:08:40;53.38;;;25.67;;
72864;SDS011;61000;48.120;11.548;2022-12-10T14:11:13;48.92;;;22.88;;
72864;SDS011;61000;48.120;11.548;2022-12-10T14:13:46;35.45;;;16.08;;
72864;SDS011;61000;48.120;11.548;2022-12-10T14:16:20;60.42;;;28.67;;
72864;SDS011;61000;48.120;11.548;2022-12-10T14:18:52;33.10;;;17.45;;
72864;SDS011;61000;48.120;11.548;2022-12-10T14:21:21;63.13;;;27.75;;
72864;SDS011;61000;48.120;11.548;2022-12-10T14:23:49;61.15;;;27.13;;
72864;SDS011;61000;48.120;11.548;2022-12-10T14:26:20;66.05;;;27.33;;
72864;SDS011;61000;48.120;11.548;2022-12-10T14:28:54;74.43;;;30.30;;
72864;SDS011;61000;48.120;11.548;2022-12-10T14:31:25;62.75;;;29.05;;
72864;SDS011;61000;48.120;11.548;2022-12-10T14:33:55;58.08;;;27.10;;
72864;SDS011;61000;48.120;11.548;2022-12-10T14:36:26;62.78;;;24.98;;
72864;SDS011;61000;48.120;11.548;2022-12-10T14:38:55;62.00;;;27.38;;
72864;SDS011;61000;48.120;11.548;2022-12-10T14:41:23;55.22;;;26.42;;
72864;SDS011;61000;48.120;11.548;2022-12-10T14:43:52;71.30;;;28.55;;